Latest Weather Observations for East Sale

IDV60801

Issued at 2:32 pm EST Saturday 27 August 2016 (issued every 30 minutes, with the page automatically refreshed every 10 minutes)

About weather observations | Map of weather stations | Latest weather observations for VIC | Other Formats
Station Details ID: 085072 Name: EAST SALE AIRPORT Lat: -38.12 Lon: 147.13 Height: 4.6 m
Data from the previous 72 hours. | See also: Recent months at East Sale
Date/Time
EST
Temp
°C
App
Temp
°C
Dew
Point
°C
Rel
Hum
%
Delta-T
°C
Wind Press
QNH
hPa
Press
MSL
hPa
Rain since
9am
mm
Dir  Spd
km/h
Gust
km/h
Spd
kts
Gust
kts
27/02:30pm 15.1 10.5 3.6 46 5.2 W 17 24 9 13 1018.2 1018.2 0.0
27/02:00pm 15.3 11.1 5.8 53 4.5 W 17 28 9 15 1018.3 1018.3 0.0
27/01:30pm 14.9 9.9 3.4 46 5.2 W 19 26 10 14 1018.9 1018.9 0.0
27/01:00pm 14.5 9.5 4.8 52 4.5 W 20 26 11 14 1019.4 1019.4 0.0
27/12:30pm 15.2 8.6 4.3 48 5.1 WNW 28 35 15 19 1019.5 1019.5 0.0
27/12:00pm 14.5 7.3 3.0 46 5.1 NW 30 37 16 20 1019.9 1019.9 0.0
27/11:30am 14.1 7.0 3.6 49 4.8 NW 30 37 16 20 1020.4 1020.4 0.0
27/11:00am 14.3 8.4 5.7 56 4.1 WNW 26 35 14 19 1020.7 1020.7 0.0
27/10:30am 13.4 7.1 4.0 53 4.3 WNW 26 32 14 17 1021.0 1021.0 0.0
27/10:00am 12.4 6.5 4.1 57 3.7 WNW 24 30 13 16 1021.6 1021.6 0.0
27/09:30am 11.1 6.0 4.1 62 3.1 WNW 20 24 11 13 1021.9 1021.9 0.0
27/09:00am 9.7 6.8 4.7 71 2.2 NNW 9 15 5 8 1022.2 1022.2 0.0
27/08:30am 8.3 4.4 3.4 71 2.1 WNW 13 15 7 8 1022.2 1022.2 0.0
27/08:00am 6.5 2.4 2.2 74 1.7 W 13 19 7 10 1022.1 1022.1 0.0
27/07:30am 3.2 0.2 1.1 86 0.8 W 6 9 3 5 1021.7 1021.7 0.0
27/07:00am 1.8 -1.2 0.5 91 0.5 W 6 7 3 4 1021.4 1021.4 0.0
27/06:30am 0.6 -3.2 -0.7 91 0.5 NW 9 9 5 5 1021.1 1021.1 0.0
27/06:00am 0.7 -3.5 -0.9 89 0.6 W 11 13 6 7 1020.9 1020.9 0.0
27/05:30am 1.6 -2.9 -0.5 86 0.8 WNW 13 15 7 8 1020.9 1020.9 0.0
27/05:00am 1.8 -2.3 -0.3 86 0.8 WNW 11 13 6 7 1020.8 1020.8 0.0
27/04:30am 3.1 -0.9 0.7 84 0.9 WNW 11 13 6 7 1020.7 1020.7 0.0
27/04:00am 2.8 -1.3 0.0 82 1.0 WNW 11 11 6 6 1020.5 1020.5 0.0
27/03:30am 3.5 -0.1 0.4 80 1.2 NW 9 9 5 5 1020.6 1020.6 0.0
27/03:00am 3.7 0.1 0.4 79 1.2 NW 9 11 5 6 1020.8 1020.8 0.0
27/02:30am 4.7 1.1 0.7 75 1.5 NW 9 13 5 7 1021.1 1021.1 0.0
27/02:00am 5.1 0.4 1.0 75 1.6 NW 15 17 8 9 1021.2 1021.2 0.0
27/01:30am 5.0 1.1 1.1 76 1.5 NW 11 13 6 7 1021.4 1021.4 0.0
27/01:00am 4.9 1.8 1.4 78 1.4 WNW 7 7 4 4 1021.6 1021.6 0.0
27/12:30am 5.7 1.4 1.1 72 1.8 NW 13 13 7 7 1021.5 1021.5 0.0
27/12:00am 5.8 1.5 1.2 72 1.8 WNW 13 15 7 8 1021.7 1021.7 0.0
 
Date/Time
EST
Temp
°C
App
Temp
°C
Dew
Point
°C
Rel
Hum
%
Delta-T
°C
Wind Press
QNH
hPa
Press
MSL
hPa
Rain since
9am
mm
Dir  Spd
km/h
Gust
km/h
Spd
kts
Gust
kts
26/11:30pm 6.3 2.1 1.6 72 1.9 W 13 15 7 8 1021.8 1021.8 0.0
26/11:00pm 6.3 2.2 2.0 74 1.7 W 13 15 7 8 1021.6 1021.6 0.0
26/10:30pm 6.1 2.0 2.2 76 1.6 WNW 13 15 7 8 1021.4 1021.4 0.0
26/10:00pm 6.9 2.4 2.0 71 2.0 WNW 15 17 8 9 1021.2 1021.2 0.0
26/09:30pm 7.1 3.1 2.6 73 1.9 WNW 13 15 7 8 1021.4 1021.4 0.0
26/09:00pm 7.1 3.5 3.0 75 1.7 NW 11 13 6 7 1021.3 1021.3 0.0
26/08:30pm 7.8 3.8 3.1 72 2.0 NW 13 15 7 8 1021.2 1021.2 0.0
26/08:00pm 9.3 5.0 3.5 67 2.5 WNW 15 17 8 9 1021.2 1021.2 0.0
26/07:30pm 9.7 5.2 4.1 68 2.5 WNW 17 20 9 11 1021.0 1021.0 0.0
26/07:00pm 9.6 4.6 3.8 67 2.5 W 19 24 10 13 1020.9 1020.9 0.0
26/06:44pm 10.3 3.6 3.8 64 2.9 W 28 41 15 22 1020.7 1020.7 0.0
26/06:30pm 10.9 6.0 3.9 62 3.1 WSW 19 22 10 12 1020.6 1020.6 0.0
26/06:00pm 10.4 5.6 4.5 67 2.6 WSW 19 26 10 14 1020.2 1020.2 0.0
26/05:30pm 10.6 5.2 4.7 67 2.7 SW 22 30 12 16 1019.9 1019.9 0.0
26/05:00pm 11.1 5.4 5.0 66 2.8 SW 24 32 13 17 1019.6 1019.6 0.0
26/04:30pm 11.6 6.4 5.5 66 2.8 WSW 22 33 12 18 1019.7 1019.7 0.0
26/04:00pm 12.0 7.1 5.2 63 3.1 WSW 20 30 11 16 1019.6 1019.6 0.0
26/03:30pm 12.2 8.0 5.8 65 3.0 WSW 17 26 9 14 1019.7 1019.7 0.0
26/03:00pm 12.0 6.3 4.7 61 3.3 W 24 30 13 16 1019.7 1019.7 0.0
26/02:30pm 12.3 6.3 5.2 62 3.3 W 26 37 14 20 1019.6 1019.6 0.0
26/02:08pm 12.6 7.5 6.2 65 3.0 WSW 22 33 12 18 1019.7 1019.7 0.0
26/02:00pm 11.9 6.8 6.2 68 2.7 WSW 22 33 12 18 1019.8 1019.8 0.0
26/01:30pm 11.5 5.5 5.2 65 2.9 WSW 26 37 14 20 1019.9 1019.9 0.0
26/01:00pm 12.4 5.8 6.0 65 3.0 W 30 39 16 21 1020.0 1020.0 0.0
26/12:30pm 11.9 6.5 6.2 68 2.7 W 24 33 13 18 1020.3 1020.3 0.0
26/12:00pm 12.0 5.6 5.2 63 3.1 W 28 37 15 20 1020.7 1020.7 0.0
26/11:30am 11.9 6.7 7.2 73 2.3 WNW 24 32 13 17 1020.8 1020.8 0.0
26/11:00am 11.1 6.1 6.5 73 2.2 WSW 22 32 12 17 1021.0 1021.0 0.0
26/10:30am 10.7 5.7 6.6 76 1.9 W 22 30 12 16 1021.1 1021.1 0.0
26/10:00am 10.0 5.1 6.9 81 1.5 W 22 28 12 15 1021.2 1021.2 0.0
26/09:30am 10.0 5.6 7.3 83 1.3 WNW 20 26 11 14 1021.3 1021.3 0.0
26/09:00am 8.9 4.2 6.2 83 1.2 WNW 20 26 11 14 1021.3 1021.3 1.8
26/08:30am 8.4 4.3 6.4 87 0.9 WNW 17 19 9 10 1021.2 1021.2 1.8
26/08:00am 6.5 3.0 5.6 94 0.4 WNW 13 15 7 8 1021.0 1021.0 1.8
26/07:30am 6.0 2.2 5.6 97 0.2 W 15 20 8 11 1020.9 1020.9 1.8
26/07:00am 4.5 0.7 4.1 97 0.2 W 13 15 7 8 1020.5 1020.5 1.8
26/06:56am 3.9 0.4 3.5 97 0.2 W 11 13 6 7 1020.4 1020.4 1.8
26/06:38am 4.0 -0.3 3.4 96 0.2 WNW 15 15 8 8 1020.1 1020.1 1.8
26/06:30am 3.9 -0.8 3.3 96 0.2 WNW 17 19 9 10 1019.9 1019.9 1.8
26/06:00am 4.1 0.2 3.4 95 0.3 WNW 13 15 7 8 1019.8 1019.8 1.8
26/05:32am 4.1 0.2 3.4 95 0.3 WNW 13 15 7 8 1019.5 1019.5 1.8
26/05:30am 4.0 -0.3 3.1 94 0.4 WNW 15 15 8 8 1019.5 1019.5 1.8
26/05:13am 5.1 1.7 4.2 94 0.4 WNW 11 13 6 7 1019.4 1019.4 1.8
26/05:00am 5.6 2.3 4.7 94 0.4 NW 11 13 6 7 1019.3 1019.3 1.8
26/04:30am 5.7 1.7 4.7 93 0.4 WNW 15 17 8 9 1019.0 1019.0 1.8
26/04:00am 6.3 2.0 5.1 92 0.5 W 17 20 9 11 1018.7 1018.7 1.8
26/03:30am 7.2 2.4 5.8 91 0.6 W 20 26 11 14 1018.4 1018.4 1.8
26/03:00am 7.1 2.9 5.9 92 0.5 W 17 20 9 11 1018.4 1018.4 1.8
26/02:30am 7.2 2.5 6.0 92 0.5 WSW 20 28 11 15 1018.4 1018.4 1.8
26/02:00am 7.2 2.7 6.1 93 0.5 W 19 22 10 12 1018.6 1018.6 1.8
26/01:30am 6.6 3.2 5.9 95 0.3 WNW 13 17 7 9 1018.7 1018.7 1.8
26/01:00am 5.3 1.2 4.4 94 0.4 W 15 17 8 9 1018.6 1018.6 1.8
26/12:30am 4.7 0.9 3.8 94 0.4 NW 13 15 7 8 1018.6 1018.6 1.8
26/12:00am 4.9 1.1 4.0 94 0.4 NW 13 15 7 8 1018.5 1018.5 1.8
 
Date/Time
EST
Temp
°C
App
Temp
°C
Dew
Point
°C
Rel
Hum
%
Delta-T
°C
Wind Press
QNH
hPa
Press
MSL
hPa
Rain since
9am
mm
Dir  Spd
km/h
Gust
km/h
Spd
kts
Gust
kts
25/11:30pm 4.4 0.1 3.4 93 0.4 WNW 15 15 8 8 1018.3 1018.3 1.8
25/11:00pm 5.0 0.8 3.8 92 0.5 WNW 15 17 8 9 1018.1 1018.1 1.8
25/10:30pm 5.3 1.1 3.8 90 0.6 WNW 15 17 8 9 1018.1 1018.1 1.8
25/10:00pm 6.0 2.6 4.2 88 0.8 NW 11 13 6 7 1018.2 1018.2 1.8
25/09:30pm 5.9 1.4 4.1 88 0.8 WNW 17 17 9 9 1018.0 1018.0 1.8
25/09:00pm 6.0 1.8 4.0 87 0.8 W 15 17 8 9 1017.7 1017.7 1.8
25/08:30pm 6.3 2.5 4.0 85 1.0 WNW 13 15 7 8 1017.6 1017.6 1.8
25/08:00pm 6.2 2.3 3.4 82 1.2 WNW 13 15 7 8 1017.2 1017.2 1.8
25/07:30pm 6.9 3.4 3.7 80 1.4 WNW 11 13 6 7 1016.9 1016.9 1.8
25/07:00pm 7.7 3.6 4.3 79 1.5 SW 15 19 8 10 1016.4 1016.4 1.8
25/06:30pm 9.0 4.5 4.2 72 2.1 SW 17 22 9 12 1016.0 1016.0 1.8
25/06:00pm 9.5 5.0 4.3 70 2.3 SW 17 26 9 14 1015.4 1015.4 1.6
25/05:30pm 9.3 5.2 4.3 71 2.2 WSW 15 22 8 12 1015.0 1015.0 1.6
25/05:00pm 9.9 6.1 5.9 76 1.8 WSW 15 20 8 11 1014.4 1014.4 1.6
25/04:30pm 11.2 6.5 5.9 70 2.5 W 20 33 11 18 1014.1 1014.1 1.6
25/04:00pm 11.6 6.1 6.1 69 2.6 W 24 32 13 17 1013.9 1013.9 1.6
25/03:30pm 11.5 6.1 6.2 70 2.5 W 24 35 13 19 1013.8 1013.8 1.6
25/03:00pm 11.6 4.4 6.1 69 2.6 W 33 43 18 23 1013.7 1013.7 1.4
25/02:30pm 11.0 4.6 5.3 68 2.6 W 28 39 15 21 1013.6 1013.6 1.4
25/02:00pm 10.2 5.3 5.2 71 2.3 WSW 20 30 11 16 1013.4 1013.4 1.4
25/01:30pm 9.7 3.6 4.7 71 2.2 WSW 26 35 14 19 1013.4 1013.4 1.2
25/01:00pm 8.8 5.7 5.7 81 1.4 WSW 11 20 6 11 1013.3 1013.3 1.2
25/12:53pm 8.4 4.9 5.3 81 1.4 WSW 13 17 7 9 1013.3 1013.3 1.2
25/12:36pm 8.2 1.0 2.9 69 2.2 SW 30 54 16 29 1013.8 1013.8 1.0
25/12:30pm 8.2 1.1 3.3 71 2.1 W 30 50 16 27 1013.7 1013.7 0.4
25/12:00pm 10.5 4.2 5.7 72 2.2 W 28 37 15 20 1013.5 1013.5 0.0
25/11:30am 11.9 6.6 7.0 72 2.3 W 24 33 13 18 1013.6 1013.6 0.0
25/11:00am 10.3 4.8 6.1 75 1.9 W 24 33 13 18 1013.8 1013.8 0.0
25/10:30am 10.1 3.6 6.3 77 1.8 W 30 37 16 20 1013.6 1013.6 0.0
25/10:00am 9.0 3.5 5.7 80 1.5 WSW 24 32 13 17 1013.5 1013.5 0.0
25/09:30am 9.3 3.9 6.2 81 1.4 W 24 32 13 17 1013.4 1013.4 0.0
25/09:00am 8.5 3.8 6.1 85 1.1 WNW 20 26 11 14 1013.5 1013.5 0.0
25/08:30am 7.5 2.7 5.5 87 0.9 WNW 20 28 11 15 1013.4 1013.4 0.0
25/08:00am 6.8 2.5 5.1 89 0.7 WNW 17 24 9 13 1013.0 1013.0 0.0
25/07:30am 6.0 1.6 4.6 91 0.6 W 17 22 9 12 1012.8 1012.8 0.0
25/07:00am 5.0 0.9 4.3 95 0.3 WNW 15 17 8 9 1012.5 1012.5 0.0
25/06:30am 4.3 0.1 3.6 95 0.3 WNW 15 17 8 9 1012.3 1012.3 0.0
25/06:00am 4.1 -0.6 3.2 94 0.4 WNW 17 17 9 9 1012.1 1012.1 0.0
25/05:30am 4.8 1.0 3.8 93 0.4 W 13 17 7 9 1012.0 1012.0 0.0
25/05:00am 5.3 1.2 4.3 93 0.4 W 15 19 8 10 1011.8 1011.8 0.0
25/04:30am 5.6 2.3 4.6 93 0.4 WNW 11 15 6 8 1011.8 1011.8 0.0
25/04:00am 5.9 1.9 4.9 93 0.4 W 15 19 8 10 1011.8 1011.8 0.0
25/03:30am 5.6 2.3 4.6 93 0.4 W 11 15 6 8 1011.9 1011.9 0.0
25/03:00am 5.8 2.1 4.6 92 0.5 WNW 13 17 7 9 1012.1 1012.1 0.0
25/02:30am 6.2 3.0 5.0 92 0.5 WNW 11 13 6 7 1012.1 1012.1 0.0
25/02:00am 5.9 2.3 4.9 93 0.4 WNW 13 15 7 8 1012.1 1012.1 0.0
25/01:30am 5.4 1.3 4.4 93 0.4 WNW 15 15 8 8 1012.3 1012.3 0.0
25/01:00am 5.4 1.7 4.4 93 0.4 W 13 19 7 10 1012.6 1012.6 0.0
25/12:30am 5.3 2.0 4.3 93 0.4 WNW 11 13 6 7 1012.7 1012.7 0.0
25/12:00am 5.8 2.2 4.8 93 0.4 WNW 13 13 7 7 1012.9 1012.9 0.0
 
Date/Time
EST
Temp
°C
App
Temp
°C
Dew
Point
°C
Rel
Hum
%
Delta-T
°C
Wind Press
QNH
hPa
Press
MSL
hPa
Rain since
9am
mm
Dir  Spd
km/h
Gust
km/h
Spd
kts
Gust
kts
24/11:30pm 6.3 3.5 5.1 92 0.5 WNW 9 11 5 6 1013.1 1013.1 0.0
24/11:00pm 7.1 4.1 5.9 92 0.5 WNW 11 11 6 6 1013.1 1013.1 0.0
24/10:30pm 7.6 4.6 6.1 90 0.7 WNW 11 11 6 6 1013.4 1013.4 0.0
24/10:00pm 8.2 5.2 6.0 86 1.0 NW 11 13 6 7 1013.6 1013.6 0.0
24/09:30pm 8.1 5.7 5.4 83 1.2 W 7 11 4 6 1013.4 1013.4 0.0
24/09:00pm 8.5 5.9 6.1 85 1.1 WSW 9 11 5 6 1013.5 1013.5 0.0
24/08:30pm 8.7 6.5 6.3 85 1.1 NW 7 9 4 5 1013.7 1013.7 0.0
24/08:00pm 8.6 6.3 5.9 83 1.2 SW 7 11 4 6 1013.6 1013.6 0.0
24/07:30pm 8.8 6.1 5.7 81 1.4 S 9 13 5 7 1013.3 1013.3 0.0
24/07:00pm 9.5 7.0 6.4 81 1.4 SSE 9 13 5 7 1013.4 1013.4 0.0
24/06:30pm 9.1 6.4 5.8 80 1.5 SSE 9 11 5 6 1013.2 1013.2 0.0
24/06:00pm 9.9 6.9 6.1 77 1.8 SSE 11 13 6 7 1013.1 1013.1 0.0
24/05:30pm 10.2 7.3 6.4 77 1.8 SSE 11 15 6 8 1013.0 1013.0 0.0
24/05:00pm 10.5 7.7 6.8 78 1.7 SE 11 13 6 7 1012.9 1012.9 0.0
24/04:30pm 11.4 8.2 6.7 73 2.2 SE 13 19 7 10 1012.7 1012.7 0.0
24/04:00pm 11.1 7.0 6.3 72 2.2 SSE 17 20 9 11 1012.8 1012.8 0.0
24/03:30pm 11.5 7.4 6.0 69 2.6 S 17 24 9 13 1012.9 1012.9 0.0
24/03:00pm 11.5 7.5 6.8 73 2.2 SSE 17 22 9 12 1013.0 1013.0 0.0

Other Formats:

Comma delimited format used in spreadsheet applications
http://www.bom.gov.au/fwo/IDV60801/IDV60801.94907.axf

JavaScript Object Notation format (JSON) in row-major order
http://www.bom.gov.au/fwo/IDV60801/IDV60801.94907.json